sensor_id;sensor_type;location;lat;lon;timestamp;P1;durP1;ratioP1;P2;durP2;ratioP2
28304;SDS011;15569;42.652;23.040;2023-04-03T00:00:44;9.88;;;5.57;;
28304;SDS011;15569;42.652;23.040;2023-04-03T00:03:09;15.77;;;7.22;;
28304;SDS011;15569;42.652;23.040;2023-04-03T00:05:35;15.15;;;7.07;;
28304;SDS011;15569;42.652;23.040;2023-04-03T00:08:00;15.93;;;7.63;;
28304;SDS011;15569;42.652;23.040;2023-04-03T00:10:27;23.25;;;8.82;;
28304;SDS011;15569;42.652;23.040;2023-04-03T00:12:52;23.77;;;7.85;;
28304;SDS011;15569;42.652;23.040;2023-04-03T00:15:18;15.07;;;8.35;;
28304;SDS011;15569;42.652;23.040;2023-04-03T00:17:43;21.95;;;8.75;;
28304;SDS011;15569;42.652;23.040;2023-04-03T00:20:09;17.65;;;8.95;;
28304;SDS011;15569;42.652;23.040;2023-04-03T00:22:35;21.17;;;9.45;;
28304;SDS011;15569;42.652;23.040;2023-04-03T00:25:00;18.92;;;9.23;;
28304;SDS011;15569;42.652;23.040;2023-04-03T00:27:25;20.90;;;9.65;;
28304;SDS011;15569;42.652;23.040;2023-04-03T00:29:51;21.75;;;10.20;;
28304;SDS011;15569;42.652;23.040;2023-04-03T00:32:16;21.45;;;10.68;;
28304;SDS011;15569;42.652;23.040;2023-04-03T00:34:42;27.30;;;11.18;;
28304;SDS011;15569;42.652;23.040;2023-04-03T00:37:07;21.73;;;10.70;;
28304;SDS011;15569;42.652;23.040;2023-04-03T00:39:33;22.05;;;9.63;;
28304;SDS011;15569;42.652;23.040;2023-04-03T00:41:58;19.17;;;8.80;;
28304;SDS011;15569;42.652;23.040;2023-04-03T00:46:58;18.23;;;8.85;;
28304;SDS011;15569;42.652;23.040;2023-04-03T00:49:25;23.05;;;10.40;;
28304;SDS011;15569;42.652;23.040;2023-04-03T00:51:51;19.77;;;9.00;;
28304;SDS011;15569;42.652;23.040;2023-04-03T00:54:17;22.77;;;10.98;;
28304;SDS011;15569;42.652;23.040;2023-04-03T00:56:42;23.38;;;9.30;;
28304;SDS011;15569;42.652;23.040;2023-04-03T00:59:16;20.85;;;9.52;;
28304;SDS011;15569;42.652;23.040;2023-04-03T01:01:48;15.93;;;8.75;;
28304;SDS011;15569;42.652;23.040;2023-04-03T01:04:27;14.98;;;8.05;;
28304;SDS011;15569;42.652;23.040;2023-04-03T01:06:58;13.68;;;7.40;;
28304;SDS011;15569;42.652;23.040;2023-04-03T01:09:46;11.07;;;6.00;;
28304;SDS011;15569;42.652;23.040;2023-04-03T01:12:26;16.10;;;7.03;;
28304;SDS011;15569;42.652;23.040;2023-04-03T01:15:05;15.82;;;7.45;;
28304;SDS011;15569;42.652;23.040;2023-04-03T01:17:37;19.38;;;7.10;;
28304;SDS011;15569;42.652;23.040;2023-04-03T01:33:31;12.00;;;5.53;;
28304;SDS011;15569;42.652;23.040;2023-04-03T01:35:57;11.27;;;5.07;;
28304;SDS011;15569;42.652;23.040;2023-04-03T01:38:23;11.10;;;6.03;;
28304;SDS011;15569;42.652;23.040;2023-04-03T01:40:48;13.77;;;6.07;;
28304;SDS011;15569;42.652;23.040;2023-04-03T01:43:14;14.70;;;6.90;;
28304;SDS011;15569;42.652;23.040;2023-04-03T01:45:39;11.40;;;6.97;;
28304;SDS011;15569;42.652;23.040;2023-04-03T01:48:04;15.98;;;7.10;;
28304;SDS011;15569;42.652;23.040;2023-04-03T01:50:30;12.00;;;5.50;;
28304;SDS011;15569;42.652;23.040;2023-04-03T01:52:56;10.88;;;5.50;;
28304;SDS011;15569;42.652;23.040;2023-04-03T01:55:22;11.10;;;5.88;;
28304;SDS011;15569;42.652;23.040;2023-04-03T01:57:47;14.43;;;5.65;;
28304;SDS011;15569;42.652;23.040;2023-04-03T02:00:13;12.90;;;6.60;;
28304;SDS011;15569;42.652;23.040;2023-04-03T02:02:39;16.85;;;7.25;;
28304;SDS011;15569;42.652;23.040;2023-04-03T02:05:05;13.20;;;7.10;;
28304;SDS011;15569;42.652;23.040;2023-04-03T02:07:30;18.48;;;7.43;;
28304;SDS011;15569;42.652;23.040;2023-04-03T02:09:56;22.58;;;8.43;;
28304;SDS011;15569;42.652;23.040;2023-04-03T02:12:21;13.70;;;6.97;;
28304;SDS011;15569;42.652;23.040;2023-04-03T02:14:47;13.52;;;6.47;;
28304;SDS011;15569;42.652;23.040;2023-04-03T02:17:12;15.18;;;7.88;;
28304;SDS011;15569;42.652;23.040;2023-04-03T02:19:38;20.83;;;7.88;;
28304;SDS011;15569;42.652;23.040;2023-04-03T02:22:03;18.40;;;8.32;;
28304;SDS011;15569;42.652;23.040;2023-04-03T02:24:30;13.75;;;7.93;;
28304;SDS011;15569;42.652;23.040;2023-04-03T02:26:55;17.42;;;8.25;;
28304;SDS011;15569;42.652;23.040;2023-04-03T02:29:21;17.50;;;8.18;;
28304;SDS011;15569;42.652;23.040;2023-04-03T02:31:46;19.13;;;8.63;;
28304;SDS011;15569;42.652;23.040;2023-04-03T02:34:12;22.50;;;9.38;;
28304;SDS011;15569;42.652;23.040;2023-04-03T02:36:37;17.25;;;8.73;;
28304;SDS011;15569;42.652;23.040;2023-04-03T02:39:03;23.20;;;8.63;;
28304;SDS011;15569;42.652;23.040;2023-04-03T02:41:29;20.85;;;9.15;;
28304;SDS011;15569;42.652;23.040;2023-04-03T02:44:00;24.05;;;9.52;;
28304;SDS011;15569;42.652;23.040;2023-04-03T02:46:26;20.20;;;9.38;;
28304;SDS011;15569;42.652;23.040;2023-04-03T02:48:51;22.95;;;9.60;;
28304;SDS011;15569;42.652;23.040;2023-04-03T02:51:16;17.23;;;9.25;;
28304;SDS011;15569;42.652;23.040;2023-04-03T02:53:42;17.70;;;8.45;;
28304;SDS011;15569;42.652;23.040;2023-04-03T02:56:08;19.20;;;9.18;;
28304;SDS011;15569;42.652;23.040;2023-04-03T02:58:33;19.00;;;9.52;;
28304;SDS011;15569;42.652;23.040;2023-04-03T03:00:58;19.08;;;9.07;;
28304;SDS011;15569;42.652;23.040;2023-04-03T03:03:24;22.92;;;9.48;;
28304;SDS011;15569;42.652;23.040;2023-04-03T03:05:49;18.50;;;9.25;;
28304;SDS011;15569;42.652;23.040;2023-04-03T03:08:15;19.90;;;9.65;;
28304;SDS011;15569;42.652;23.040;2023-04-03T03:10:40;20.58;;;8.90;;
28304;SDS011;15569;42.652;23.040;2023-04-03T03:13:05;22.55;;;8.77;;
28304;SDS011;15569;42.652;23.040;2023-04-03T03:15:31;17.63;;;8.23;;
28304;SDS011;15569;42.652;23.040;2023-04-03T03:17:56;13.77;;;7.55;;
28304;SDS011;15569;42.652;23.040;2023-04-03T03:20:22;14.40;;;7.55;;
28304;SDS011;15569;42.652;23.040;2023-04-03T03:22:47;17.85;;;8.80;;
28304;SDS011;15569;42.652;23.040;2023-04-03T03:25:12;15.52;;;8.73;;
28304;SDS011;15569;42.652;23.040;2023-04-03T03:27:38;16.85;;;7.68;;
28304;SDS011;15569;42.652;23.040;2023-04-03T03:30:04;13.45;;;8.13;;
28304;SDS011;15569;42.652;23.040;2023-04-03T03:32:30;13.30;;;7.55;;
28304;SDS011;15569;42.652;23.040;2023-04-03T03:34:55;16.48;;;8.38;;
28304;SDS011;15569;42.652;23.040;2023-04-03T03:37:21;12.23;;;7.35;;
28304;SDS011;15569;42.652;23.040;2023-04-03T03:39:46;11.52;;;7.38;;
28304;SDS011;15569;42.652;23.040;2023-04-03T03:42:12;23.00;;;7.82;;
28304;SDS011;15569;42.652;23.040;2023-04-03T03:44:37;17.27;;;7.53;;
28304;SDS011;15569;42.652;23.040;2023-04-03T03:47:02;11.38;;;7.28;;
28304;SDS011;15569;42.652;23.040;2023-04-03T03:49:28;19.45;;;7.50;;
28304;SDS011;15569;42.652;23.040;2023-04-03T03:51:54;15.27;;;6.55;;
28304;SDS011;15569;42.652;23.040;2023-04-03T03:54:20;11.60;;;7.10;;
28304;SDS011;15569;42.652;23.040;2023-04-03T03:56:45;11.68;;;6.75;;
28304;SDS011;15569;42.652;23.040;2023-04-03T03:59:11;16.65;;;8.77;;
28304;SDS011;15569;42.652;23.040;2023-04-03T04:01:37;20.98;;;10.48;;
28304;SDS011;15569;42.652;23.040;2023-04-03T04:04:03;25.55;;;12.55;;
28304;SDS011;15569;42.652;23.040;2023-04-03T04:06:28;23.77;;;11.25;;
28304;SDS011;15569;42.652;23.040;2023-04-03T04:08:54;26.73;;;10.45;;
28304;SDS011;15569;42.652;23.040;2023-04-03T04:11:19;27.17;;;9.85;;
28304;SDS011;15569;42.652;23.040;2023-04-03T04:13:46;25.98;;;11.68;;
28304;SDS011;15569;42.652;23.040;2023-04-03T04:16:11;29.90;;;11.45;;
28304;SDS011;15569;42.652;23.040;2023-04-03T04:18:36;40.15;;;14.07;;
28304;SDS011;15569;42.652;23.040;2023-04-03T04:21:02;27.05;;;12.10;;
28304;SDS011;15569;42.652;23.040;2023-04-03T04:23:27;33.00;;;11.00;;
28304;SDS011;15569;42.652;23.040;2023-04-03T04:25:53;19.02;;;9.90;;
28304;SDS011;15569;42.652;23.040;2023-04-03T04:28:18;23.98;;;9.45;;
28304;SDS011;15569;42.652;23.040;2023-04-03T04:30:43;24.13;;;9.80;;
28304;SDS011;15569;42.652;23.040;2023-04-03T04:33:10;20.65;;;9.00;;
28304;SDS011;15569;42.652;23.040;2023-04-03T04:35:36;33.50;;;10.27;;
28304;SDS011;15569;42.652;23.040;2023-04-03T04:38:01;33.75;;;11.07;;
28304;SDS011;15569;42.652;23.040;2023-04-03T04:40:27;25.92;;;8.65;;
28304;SDS011;15569;42.652;23.040;2023-04-03T04:42:53;20.90;;;8.95;;
28304;SDS011;15569;42.652;23.040;2023-04-03T04:45:18;27.08;;;10.52;;
28304;SDS011;15569;42.652;23.040;2023-04-03T04:47:44;25.23;;;9.45;;
28304;SDS011;15569;42.652;23.040;2023-04-03T04:50:10;21.80;;;10.15;;
28304;SDS011;15569;42.652;23.040;2023-04-03T04:52:36;27.10;;;11.15;;
28304;SDS011;15569;42.652;23.040;2023-04-03T04:55:02;37.20;;;14.13;;
28304;SDS011;15569;42.652;23.040;2023-04-03T04:57:28;39.78;;;14.95;;
28304;SDS011;15569;42.652;23.040;2023-04-03T04:59:53;38.30;;;16.63;;
28304;SDS011;15569;42.652;23.040;2023-04-03T05:02:18;49.42;;;19.30;;
28304;SDS011;15569;42.652;23.040;2023-04-03T05:04:44;49.08;;;18.25;;
28304;SDS011;15569;42.652;23.040;2023-04-03T05:07:09;46.80;;;21.73;;
28304;SDS011;15569;42.652;23.040;2023-04-03T05:09:35;57.05;;;22.63;;
28304;SDS011;15569;42.652;23.040;2023-04-03T05:12:00;58.20;;;25.63;;
28304;SDS011;15569;42.652;23.040;2023-04-03T05:14:27;84.97;;;33.60;;
28304;SDS011;15569;42.652;23.040;2023-04-03T05:16:53;75.32;;;29.00;;
28304;SDS011;15569;42.652;23.040;2023-04-03T05:19:19;76.38;;;27.55;;
28304;SDS011;15569;42.652;23.040;2023-04-03T05:21:47;65.00;;;25.02;;
28304;SDS011;15569;42.652;23.040;2023-04-03T05:24:13;65.82;;;26.92;;
28304;SDS011;15569;42.652;23.040;2023-04-03T05:26:40;61.72;;;25.67;;
28304;SDS011;15569;42.652;23.040;2023-04-03T05:29:06;64.47;;;25.90;;
28304;SDS011;15569;42.652;23.040;2023-04-03T05:31:32;60.28;;;27.88;;
28304;SDS011;15569;42.652;23.040;2023-04-03T05:33:57;65.70;;;26.00;;
28304;SDS011;15569;42.652;23.040;2023-04-03T05:36:23;43.17;;;21.30;;
28304;SDS011;15569;42.652;23.040;2023-04-03T05:38:49;28.50;;;13.82;;
28304;SDS011;15569;42.652;23.040;2023-04-03T05:41:14;12.70;;;6.72;;
28304;SDS011;15569;42.652;23.040;2023-04-03T05:43:40;11.20;;;5.88;;
28304;SDS011;15569;42.652;23.040;2023-04-03T05:46:13;9.60;;;5.65;;
28304;SDS011;15569;42.652;23.040;2023-04-03T05:48:40;5.47;;;3.50;;
28304;SDS011;15569;42.652;23.040;2023-04-03T05:51:06;7.40;;;2.80;;
28304;SDS011;15569;42.652;23.040;2023-04-03T05:53:33;3.45;;;2.28;;
28304;SDS011;15569;42.652;23.040;2023-04-03T05:56:04;4.53;;;2.67;;
28304;SDS011;15569;42.652;23.040;2023-04-03T05:58:29;4.40;;;3.72;;
28304;SDS011;15569;42.652;23.040;2023-04-03T06:00:55;4.90;;;3.72;;
28304;SDS011;15569;42.652;23.040;2023-04-03T06:03:21;6.15;;;3.75;;
28304;SDS011;15569;42.652;23.040;2023-04-03T06:05:46;3.15;;;2.60;;
28304;SDS011;15569;42.652;23.040;2023-04-03T06:08:12;3.17;;;2.67;;
28304;SDS011;15569;42.652;23.040;2023-04-03T06:10:37;4.50;;;3.47;;
28304;SDS011;15569;42.652;23.040;2023-04-03T06:13:03;10.52;;;5.20;;
28304;SDS011;15569;42.652;23.040;2023-04-03T06:15:28;4.50;;;3.92;;
28304;SDS011;15569;42.652;23.040;2023-04-03T06:17:54;6.05;;;3.85;;
28304;SDS011;15569;42.652;23.040;2023-04-03T06:20:20;5.82;;;4.28;;
28304;SDS011;15569;42.652;23.040;2023-04-03T06:22:45;15.88;;;8.07;;
28304;SDS011;15569;42.652;23.040;2023-04-03T06:25:11;6.90;;;5.03;;
28304;SDS011;15569;42.652;23.040;2023-04-03T06:27:37;14.15;;;7.50;;
28304;SDS011;15569;42.652;23.040;2023-04-03T06:30:03;6.78;;;6.05;;
28304;SDS011;15569;42.652;23.040;2023-04-03T06:32:30;8.88;;;5.57;;
28304;SDS011;15569;42.652;23.040;2023-04-03T06:34:55;6.93;;;4.47;;
28304;SDS011;15569;42.652;23.040;2023-04-03T06:37:22;8.40;;;5.78;;
28304;SDS011;15569;42.652;23.040;2023-04-03T06:39:51;5.50;;;4.30;;
28304;SDS011;15569;42.652;23.040;2023-04-03T06:42:16;7.18;;;5.90;;
28304;SDS011;15569;42.652;23.040;2023-04-03T06:44:42;5.25;;;4.22;;
28304;SDS011;15569;42.652;23.040;2023-04-03T06:47:09;4.38;;;3.97;;
28304;SDS011;15569;42.652;23.040;2023-04-03T06:49:36;8.00;;;4.77;;
28304;SDS011;15569;42.652;23.040;2023-04-03T06:52:02;13.85;;;6.88;;
28304;SDS011;15569;42.652;23.040;2023-04-03T06:54:27;5.35;;;4.43;;
28304;SDS011;15569;42.652;23.040;2023-04-03T06:56:53;8.00;;;4.90;;
28304;SDS011;15569;42.652;23.040;2023-04-03T06:59:18;3.53;;;3.22;;
28304;SDS011;15569;42.652;23.040;2023-04-03T07:01:44;6.03;;;4.80;;
28304;SDS011;15569;42.652;23.040;2023-04-03T07:04:10;8.30;;;5.88;;
28304;SDS011;15569;42.652;23.040;2023-04-03T07:06:35;7.22;;;6.40;;
28304;SDS011;15569;42.652;23.040;2023-04-03T07:09:01;8.52;;;4.85;;
28304;SDS011;15569;42.652;23.040;2023-04-03T07:11:27;16.13;;;9.00;;
28304;SDS011;15569;42.652;23.040;2023-04-03T07:13:53;9.02;;;7.30;;
28304;SDS011;15569;42.652;23.040;2023-04-03T07:16:18;10.07;;;6.60;;
28304;SDS011;15569;42.652;23.040;2023-04-03T07:18:45;10.02;;;7.07;;
28304;SDS011;15569;42.652;23.040;2023-04-03T07:21:10;7.63;;;4.88;;
28304;SDS011;15569;42.652;23.040;2023-04-03T07:23:36;5.82;;;4.80;;
28304;SDS011;15569;42.652;23.040;2023-04-03T07:26:02;6.80;;;5.97;;
28304;SDS011;15569;42.652;23.040;2023-04-03T07:28:28;11.43;;;6.55;;
28304;SDS011;15569;42.652;23.040;2023-04-03T07:30:54;7.57;;;6.18;;
28304;SDS011;15569;42.652;23.040;2023-04-03T07:33:28;10.60;;;7.25;;
28304;SDS011;15569;42.652;23.040;2023-04-03T07:35:54;19.33;;;10.90;;
28304;SDS011;15569;42.652;23.040;2023-04-03T07:38:20;9.70;;;6.95;;
28304;SDS011;15569;42.652;23.040;2023-04-03T07:40:49;9.40;;;5.80;;
28304;SDS011;15569;42.652;23.040;2023-04-03T07:43:16;5.18;;;4.68;;
28304;SDS011;15569;42.652;23.040;2023-04-03T07:45:42;8.88;;;5.53;;
28304;SDS011;15569;42.652;23.040;2023-04-03T07:48:08;8.15;;;6.20;;
28304;SDS011;15569;42.652;23.040;2023-04-03T07:50:35;6.57;;;3.55;;
28304;SDS011;15569;42.652;23.040;2023-04-03T07:53:01;6.75;;;4.38;;
28304;SDS011;15569;42.652;23.040;2023-04-03T07:55:27;10.15;;;4.40;;
28304;SDS011;15569;42.652;23.040;2023-04-03T07:57:52;7.55;;;3.88;;
28304;SDS011;15569;42.652;23.040;2023-04-03T08:00:18;11.30;;;5.85;;
28304;SDS011;15569;42.652;23.040;2023-04-03T08:02:44;16.90;;;7.85;;
28304;SDS011;15569;42.652;23.040;2023-04-03T08:05:15;13.48;;;6.68;;
28304;SDS011;15569;42.652;23.040;2023-04-03T08:07:41;8.50;;;5.43;;
28304;SDS011;15569;42.652;23.040;2023-04-03T08:10:07;6.75;;;3.63;;
28304;SDS011;15569;42.652;23.040;2023-04-03T08:12:33;6.68;;;4.35;;
28304;SDS011;15569;42.652;23.040;2023-04-03T08:14:59;26.40;;;11.23;;
28304;SDS011;15569;42.652;23.040;2023-04-03T08:17:26;9.38;;;5.70;;
28304;SDS011;15569;42.652;23.040;2023-04-03T08:19:51;8.23;;;4.30;;
28304;SDS011;15569;42.652;23.040;2023-04-03T08:22:17;11.77;;;4.13;;
28304;SDS011;15569;42.652;23.040;2023-04-03T08:24:42;10.25;;;4.80;;
28304;SDS011;15569;42.652;23.040;2023-04-03T08:27:07;12.27;;;9.35;;
28304;SDS011;15569;42.652;23.040;2023-04-03T08:29:33;11.43;;;6.82;;
28304;SDS011;15569;42.652;23.040;2023-04-03T08:31:58;12.32;;;8.90;;
28304;SDS011;15569;42.652;23.040;2023-04-03T08:34:23;14.73;;;8.55;;
28304;SDS011;15569;42.652;23.040;2023-04-03T08:36:49;11.00;;;6.82;;
28304;SDS011;15569;42.652;23.040;2023-04-03T08:39:14;5.40;;;4.07;;
28304;SDS011;15569;42.652;23.040;2023-04-03T08:41:41;6.68;;;4.38;;
28304;SDS011;15569;42.652;23.040;2023-04-03T08:50:10;10.50;;;7.80;;
28304;SDS011;15569;42.652;23.040;2023-04-03T08:52:53;8.02;;;4.70;;
28304;SDS011;15569;42.652;23.040;2023-04-03T08:55:31;5.05;;;3.17;;
28304;SDS011;15569;42.652;23.040;2023-04-03T08:58:06;11.38;;;5.50;;
28304;SDS011;15569;42.652;23.040;2023-04-03T09:00:53;5.55;;;2.95;;
28304;SDS011;15569;42.652;23.040;2023-04-03T09:03:23;6.32;;;3.25;;
28304;SDS011;15569;42.652;23.040;2023-04-03T09:13:59;8.68;;;5.20;;
28304;SDS011;15569;42.652;23.040;2023-04-03T09:21:40;12.50;;;6.55;;
28304;SDS011;15569;42.652;23.040;2023-04-03T09:24:07;6.47;;;3.65;;
28304;SDS011;15569;42.652;23.040;2023-04-03T09:26:48;17.77;;;7.40;;
28304;SDS011;15569;42.652;23.040;2023-04-03T09:29:19;7.82;;;4.80;;
28304;SDS011;15569;42.652;23.040;2023-04-03T09:31:50;14.18;;;7.72;;
28304;SDS011;15569;42.652;23.040;2023-04-03T09:34:31;4.63;;;3.78;;
28304;SDS011;15569;42.652;23.040;2023-04-03T09:37:01;6.82;;;5.70;;
28304;SDS011;15569;42.652;23.040;2023-04-03T09:39:31;11.65;;;5.82;;
28304;SDS011;15569;42.652;23.040;2023-04-03T09:42:19;6.30;;;3.67;;
28304;SDS011;15569;42.652;23.040;2023-04-03T09:44:55;6.38;;;4.50;;
28304;SDS011;15569;42.652;23.040;2023-04-03T09:47:29;5.28;;;3.72;;
28304;SDS011;15569;42.652;23.040;2023-04-03T09:52:44;6.57;;;4.15;;
28304;SDS011;15569;42.652;23.040;2023-04-03T09:55:25;12.05;;;6.07;;
28304;SDS011;15569;42.652;23.040;2023-04-03T09:57:54;13.27;;;7.72;;
28304;SDS011;15569;42.652;23.040;2023-04-03T10:00:33;6.53;;;5.43;;
28304;SDS011;15569;42.652;23.040;2023-04-03T10:03:01;23.58;;;11.85;;
28304;SDS011;15569;42.652;23.040;2023-04-03T10:05:35;10.82;;;6.45;;
28304;SDS011;15569;42.652;23.040;2023-04-03T10:10:40;13.15;;;6.55;;
28304;SDS011;15569;42.652;23.040;2023-04-03T10:13:09;8.98;;;5.22;;
28304;SDS011;15569;42.652;23.040;2023-04-03T10:21:15;8.05;;;5.68;;
28304;SDS011;15569;42.652;23.040;2023-04-03T10:26:39;10.45;;;6.78;;
28304;SDS011;15569;42.652;23.040;2023-04-03T10:34:47;11.27;;;6.15;;
28304;SDS011;15569;42.652;23.040;2023-04-03T10:37:25;6.30;;;4.47;;
28304;SDS011;15569;42.652;23.040;2023-04-03T10:42:59;11.63;;;6.28;;
28304;SDS011;15569;42.652;23.040;2023-04-03T10:48:16;9.85;;;6.78;;
28304;SDS011;15569;42.652;23.040;2023-04-03T10:56:32;15.10;;;7.40;;
28304;SDS011;15569;42.652;23.040;2023-04-03T11:01:39;14.38;;;8.85;;
28304;SDS011;15569;42.652;23.040;2023-04-03T11:04:07;11.50;;;6.72;;
28304;SDS011;15569;42.652;23.040;2023-04-03T11:06:40;9.50;;;6.35;;
28304;SDS011;15569;42.652;23.040;2023-04-03T11:12:02;18.52;;;6.53;;
28304;SDS011;15569;42.652;23.040;2023-04-03T11:14:36;14.82;;;7.18;;
28304;SDS011;15569;42.652;23.040;2023-04-03T11:17:15;12.32;;;7.85;;
28304;SDS011;15569;42.652;23.040;2023-04-03T11:20:31;13.15;;;8.00;;
28304;SDS011;15569;42.652;23.040;2023-04-03T11:22:45;12.27;;;8.48;;
28304;SDS011;15569;42.652;23.040;2023-04-03T11:25:23;7.05;;;4.88;;
28304;SDS011;15569;42.652;23.040;2023-04-03T11:27:57;5.13;;;3.97;;
28304;SDS011;15569;42.652;23.040;2023-04-03T11:33:07;5.22;;;3.78;;
28304;SDS011;15569;42.652;23.040;2023-04-03T11:35:42;18.38;;;10.05;;
28304;SDS011;15569;42.652;23.040;2023-04-03T11:38:24;12.82;;;7.32;;
28304;SDS011;15569;42.652;23.040;2023-04-03T11:40:52;14.05;;;7.57;;
28304;SDS011;15569;42.652;23.040;2023-04-03T11:43:30;20.55;;;11.52;;
28304;SDS011;15569;42.652;23.040;2023-04-03T11:53:38;14.15;;;8.82;;
28304;SDS011;15569;42.652;23.040;2023-04-03T12:04:22;8.20;;;4.50;;
28304;SDS011;15569;42.652;23.040;2023-04-03T12:06:52;24.75;;;11.93;;
28304;SDS011;15569;42.652;23.040;2023-04-03T12:11:54;15.70;;;8.10;;
28304;SDS011;15569;42.652;23.040;2023-04-03T12:14:24;22.52;;;10.27;;
28304;SDS011;15569;42.652;23.040;2023-04-03T12:16:50;15.93;;;9.02;;
28304;SDS011;15569;42.652;23.040;2023-04-03T12:19:37;29.73;;;15.55;;
28304;SDS011;15569;42.652;23.040;2023-04-03T12:22:09;23.02;;;11.50;;
28304;SDS011;15569;42.652;23.040;2023-04-03T12:24:39;9.55;;;6.82;;
28304;SDS011;15569;42.652;23.040;2023-04-03T12:27:25;32.13;;;15.57;;
28304;SDS011;15569;42.652;23.040;2023-04-03T12:29:55;11.27;;;7.22;;
28304;SDS011;15569;42.652;23.040;2023-04-03T12:45:26;15.18;;;7.70;;
28304;SDS011;15569;42.652;23.040;2023-04-03T12:47:53;17.63;;;8.73;;
28304;SDS011;15569;42.652;23.040;2023-04-03T12:52:56;13.07;;;7.82;;
28304;SDS011;15569;42.652;23.040;2023-04-03T12:55:25;11.85;;;6.60;;
28304;SDS011;15569;42.652;23.040;2023-04-03T12:57:51;12.20;;;6.70;;
28304;SDS011;15569;42.652;23.040;2023-04-03T13:00:21;19.85;;;9.30;;
28304;SDS011;15569;42.652;23.040;2023-04-03T13:03:16;12.45;;;6.30;;
28304;SDS011;15569;42.652;23.040;2023-04-03T13:05:47;10.40;;;8.32;;
28304;SDS011;15569;42.652;23.040;2023-04-03T13:08:13;42.70;;;21.50;;
28304;SDS011;15569;42.652;23.040;2023-04-03T13:10:49;23.45;;;12.30;;
28304;SDS011;15569;42.652;23.040;2023-04-03T13:13:15;18.13;;;9.07;;
28304;SDS011;15569;42.652;23.040;2023-04-03T13:15:45;13.68;;;8.00;;
28304;SDS011;15569;42.652;23.040;2023-04-03T13:20:48;17.33;;;7.43;;
28304;SDS011;15569;42.652;23.040;2023-04-03T13:23:14;15.18;;;6.82;;
28304;SDS011;15569;42.652;23.040;2023-04-03T13:25:45;19.92;;;9.23;;
28304;SDS011;15569;42.652;23.040;2023-04-03T13:28:13;19.48;;;8.27;;
28304;SDS011;15569;42.652;23.040;2023-04-03T13:30:53;18.77;;;7.47;;
28304;SDS011;15569;42.652;23.040;2023-04-03T13:33:22;21.30;;;12.48;;
28304;SDS011;15569;42.652;23.040;2023-04-03T13:35:58;16.30;;;9.70;;
28304;SDS011;15569;42.652;23.040;2023-04-03T13:38:29;16.83;;;8.45;;
28304;SDS011;15569;42.652;23.040;2023-04-03T13:40:58;11.00;;;6.75;;
28304;SDS011;15569;42.652;23.040;2023-04-03T13:43:28;13.60;;;7.53;;
28304;SDS011;15569;42.652;23.040;2023-04-03T13:46:01;14.77;;;7.30;;
28304;SDS011;15569;42.652;23.040;2023-04-03T13:48:37;8.57;;;5.15;;
28304;SDS011;15569;42.652;23.040;2023-04-03T13:51:03;16.90;;;7.38;;
28304;SDS011;15569;42.652;23.040;2023-04-03T13:53:32;9.83;;;5.70;;
28304;SDS011;15569;42.652;23.040;2023-04-03T13:58:29;22.05;;;9.13;;
28304;SDS011;15569;42.652;23.040;2023-04-03T14:01:00;10.25;;;5.95;;
28304;SDS011;15569;42.652;23.040;2023-04-03T14:05:55;15.27;;;6.90;;
28304;SDS011;15569;42.652;23.040;2023-04-03T14:08:21;9.77;;;6.30;;
28304;SDS011;15569;42.652;23.040;2023-04-03T14:10:47;12.20;;;5.97;;
28304;SDS011;15569;42.652;23.040;2023-04-03T14:13:15;11.90;;;5.13;;
28304;SDS011;15569;42.652;23.040;2023-04-03T14:15:42;12.95;;;6.85;;
28304;SDS011;15569;42.652;23.040;2023-04-03T14:18:12;27.13;;;12.13;;
28304;SDS011;15569;42.652;23.040;2023-04-03T14:20:39;15.48;;;7.13;;
28304;SDS011;15569;42.652;23.040;2023-04-03T14:23:05;17.15;;;8.30;;
28304;SDS011;15569;42.652;23.040;2023-04-03T14:25:31;14.85;;;7.30;;
28304;SDS011;15569;42.652;23.040;2023-04-03T14:27:57;7.50;;;5.10;;
28304;SDS011;15569;42.652;23.040;2023-04-03T14:30:27;11.02;;;5.55;;
28304;SDS011;15569;42.652;23.040;2023-04-03T14:32:54;11.60;;;6.53;;
28304;SDS011;15569;42.652;23.040;2023-04-03T14:35:21;15.48;;;9.18;;
28304;SDS011;15569;42.652;23.040;2023-04-03T14:37:47;21.92;;;11.65;;
28304;SDS011;15569;42.652;23.040;2023-04-03T14:40:18;19.73;;;9.75;;
28304;SDS011;15569;42.652;23.040;2023-04-03T14:42:47;17.08;;;6.93;;
28304;SDS011;15569;42.652;23.040;2023-04-03T14:45:14;12.18;;;7.07;;
28304;SDS011;15569;42.652;23.040;2023-04-03T14:47:42;25.77;;;11.93;;
28304;SDS011;15569;42.652;23.040;2023-04-03T14:50:18;10.02;;;6.03;;
28304;SDS011;15569;42.652;23.040;2023-04-03T14:52:46;18.00;;;7.63;;
28304;SDS011;15569;42.652;23.040;2023-04-03T14:55:14;20.40;;;9.00;;
28304;SDS011;15569;42.652;23.040;2023-04-03T14:57:41;28.40;;;12.35;;
28304;SDS011;15569;42.652;23.040;2023-04-03T15:00:16;11.20;;;5.22;;
28304;SDS011;15569;42.652;23.040;2023-04-03T15:02:43;9.52;;;6.15;;
28304;SDS011;15569;42.652;23.040;2023-04-03T15:05:10;18.95;;;10.05;;
28304;SDS011;15569;42.652;23.040;2023-04-03T15:07:57;11.32;;;5.68;;
28304;SDS011;15569;42.652;23.040;2023-04-03T15:10:23;22.00;;;9.85;;
28304;SDS011;15569;42.652;23.040;2023-04-03T15:12:53;11.45;;;6.65;;
28304;SDS011;15569;42.652;23.040;2023-04-03T15:15:20;8.02;;;4.30;;
28304;SDS011;15569;42.652;23.040;2023-04-03T15:17:47;6.80;;;4.38;;
28304;SDS011;15569;42.652;23.040;2023-04-03T15:20:19;14.65;;;7.72;;
28304;SDS011;15569;42.652;23.040;2023-04-03T15:22:47;6.65;;;4.15;;
28304;SDS011;15569;42.652;23.040;2023-04-03T15:25:13;10.38;;;6.22;;
28304;SDS011;15569;42.652;23.040;2023-04-03T15:27:39;6.72;;;3.78;;
28304;SDS011;15569;42.652;23.040;2023-04-03T15:30:07;6.60;;;4.10;;
28304;SDS011;15569;42.652;23.040;2023-04-03T15:35:01;14.30;;;7.35;;
28304;SDS011;15569;42.652;23.040;2023-04-03T15:37:27;7.88;;;4.10;;
28304;SDS011;15569;42.652;23.040;2023-04-03T15:39:52;11.20;;;5.80;;
28304;SDS011;15569;42.652;23.040;2023-04-03T15:42:18;11.20;;;5.80;;
28304;SDS011;15569;42.652;23.040;2023-04-03T15:44:43;8.30;;;4.57;;
28304;SDS011;15569;42.652;23.040;2023-04-03T15:47:09;5.28;;;3.67;;
28304;SDS011;15569;42.652;23.040;2023-04-03T15:49:34;12.98;;;5.22;;
28304;SDS011;15569;42.652;23.040;2023-04-03T15:52:00;12.88;;;6.45;;
28304;SDS011;15569;42.652;23.040;2023-04-03T15:54:26;13.18;;;7.25;;
28304;SDS011;15569;42.652;23.040;2023-04-03T15:56:52;11.18;;;5.82;;
28304;SDS011;15569;42.652;23.040;2023-04-03T15:59:18;15.40;;;6.32;;
28304;SDS011;15569;42.652;23.040;2023-04-03T16:01:44;6.95;;;3.63;;
28304;SDS011;15569;42.652;23.040;2023-04-03T16:04:10;6.88;;;3.97;;
28304;SDS011;15569;42.652;23.040;2023-04-03T16:06:36;11.25;;;6.47;;
28304;SDS011;15569;42.652;23.040;2023-04-03T16:09:02;8.55;;;5.43;;
28304;SDS011;15569;42.652;23.040;2023-04-03T16:11:28;9.75;;;5.05;;
28304;SDS011;15569;42.652;23.040;2023-04-03T16:13:54;17.88;;;7.93;;
28304;SDS011;15569;42.652;23.040;2023-04-03T16:16:20;6.22;;;4.80;;
28304;SDS011;15569;42.652;23.040;2023-04-03T16:18:46;16.02;;;7.20;;
28304;SDS011;15569;42.652;23.040;2023-04-03T16:21:12;9.02;;;5.05;;
28304;SDS011;15569;42.652;23.040;2023-04-03T16:23:40;6.10;;;4.13;;
28304;SDS011;15569;42.652;23.040;2023-04-03T16:26:06;8.52;;;5.32;;